createdAt,value
2023-03-01T00:04:39.520Z,99.90
2023-03-01T00:11:28.190Z,99.90
2023-03-01T00:18:10.806Z,99.90
2023-03-01T00:24:53.084Z,99.90
2023-03-01T00:31:35.476Z,99.90
2023-03-01T00:38:17.804Z,99.90
2023-03-01T00:45:00.115Z,99.90
2023-03-01T00:51:42.687Z,99.90
2023-03-01T00:58:25.382Z,99.90
2023-03-01T01:05:08.124Z,99.90
2023-03-01T01:11:51.903Z,99.90
2023-03-01T01:18:35.316Z,99.90
2023-03-01T01:25:17.834Z,99.90
2023-03-01T01:32:00.248Z,99.90
2023-03-01T01:38:43.336Z,99.90
2023-03-01T01:45:35.311Z,99.90
2023-03-01T01:52:23.760Z,99.90
2023-03-01T01:59:06.437Z,99.90
2023-03-01T02:06:01.866Z,99.90
2023-03-01T02:12:44.850Z,99.90
2023-03-01T02:19:51.248Z,99.90
2023-03-01T02:26:53.839Z,99.90
2023-03-01T02:33:38.600Z,99.90
2023-03-01T02:40:22.507Z,99.90
2023-03-01T02:47:07.027Z,99.90
2023-03-01T02:54:11.204Z,99.90
2023-03-01T03:00:53.683Z,99.90
2023-03-01T03:07:38.674Z,99.90
2023-03-01T03:14:21.141Z,99.90
2023-03-01T03:21:11.249Z,99.90
2023-03-01T03:27:57.527Z,99.90
2023-03-01T03:34:39.851Z,99.90
2023-03-01T03:41:22.388Z,99.90
2023-03-01T03:48:06.709Z,99.90
2023-03-01T03:54:48.965Z,99.90
2023-03-01T04:01:31.276Z,99.90
2023-03-01T04:08:14.263Z,99.90
2023-03-01T04:14:56.563Z,99.90
2023-03-01T04:21:38.951Z,99.90
2023-03-01T04:28:25.432Z,99.90
2023-03-01T04:35:08.164Z,99.90
2023-03-01T04:41:50.450Z,99.90
2023-03-01T04:48:33.675Z,99.90
2023-03-01T04:55:16.609Z,99.90
2023-03-01T05:01:58.934Z,99.90
2023-03-01T05:08:42.634Z,99.90
2023-03-01T05:15:29.968Z,99.90
2023-03-01T05:22:12.536Z,99.90
2023-03-01T05:28:59.441Z,99.90
2023-03-01T05:35:43.573Z,99.90
2023-03-01T05:42:25.965Z,99.90
2023-03-01T05:49:08.358Z,99.90
2023-03-01T05:55:50.825Z,99.90
2023-03-01T06:02:33.118Z,99.90
2023-03-01T06:09:15.436Z,99.90
2023-03-01T06:15:57.807Z,99.90
2023-03-01T06:22:40.508Z,99.90
2023-03-01T06:29:23.539Z,99.90
2023-03-01T06:36:06.385Z,99.90
2023-03-01T06:42:50.882Z,99.90
2023-03-01T06:49:33.206Z,99.90
2023-03-01T06:56:15.484Z,99.90
2023-03-01T07:03:01.457Z,99.90
2023-03-01T07:09:43.809Z,99.90
2023-03-01T07:16:26.181Z,99.90
2023-03-01T07:23:08.547Z,99.90
2023-03-01T07:29:50.803Z,99.90
2023-03-01T07:36:33.280Z,99.90
2023-03-01T07:43:15.634Z,94.50
2023-03-01T07:49:57.978Z,91.70
2023-03-01T07:56:41.669Z,90.00
2023-03-01T08:03:24.029Z,90.80
2023-03-01T08:10:06.967Z,89.50
2023-03-01T08:16:50.995Z,90.00
2023-03-01T08:23:33.670Z,86.50
2023-03-01T08:30:16.442Z,80.20
2023-03-01T08:36:59.125Z,79.80
2023-03-01T08:44:31.804Z,82.80
2023-03-01T08:51:17.258Z,82.80
2023-03-01T08:58:00.484Z,81.90
2023-03-01T09:04:43.103Z,82.00
2023-03-01T09:11:25.735Z,81.90
2023-03-01T09:18:08.049Z,83.70
2023-03-01T09:24:50.313Z,82.40
2023-03-01T09:31:32.669Z,77.80
2023-03-01T09:38:15.184Z,76.50
2023-03-01T09:45:04.457Z,77.40
2023-03-01T09:51:56.372Z,77.40
2023-03-01T09:58:48.718Z,78.30
2023-03-01T10:06:02.014Z,76.50
2023-03-01T10:12:45.680Z,72.10
2023-03-01T10:19:37.493Z,72.30
2023-03-01T10:26:38.343Z,70.50
2023-03-01T10:33:31.985Z,69.40
2023-03-01T10:40:14.417Z,69.60
2023-03-01T10:47:02.085Z,68.00
2023-03-01T10:53:50.451Z,68.00
2023-03-01T11:00:33.769Z,69.70
2023-03-01T11:07:16.157Z,71.90
2023-03-01T11:14:25.126Z,75.60
2023-03-01T11:21:09.689Z,77.00
2023-03-01T11:27:54.151Z,79.80
2023-03-01T11:35:02.828Z,82.90
2023-03-01T11:41:53.109Z,87.20
2023-03-01T11:49:14.277Z,86.70
2023-03-01T11:56:34.930Z,87.80
2023-03-01T12:03:48.269Z,85.70
2023-03-01T12:10:53.404Z,84.90
2023-03-01T12:17:48.861Z,85.50
2023-03-01T12:24:57.165Z,86.90
2023-03-01T12:31:56.236Z,86.80
2023-03-01T12:38:44.148Z,86.00
2023-03-01T12:45:40.961Z,85.60
2023-03-01T12:52:44.966Z,85.60
2023-03-01T13:00:08.609Z,85.40
2023-03-01T13:07:22.450Z,84.60
2023-03-01T13:14:25.013Z,85.30
2023-03-01T13:21:08.101Z,85.20
2023-03-01T13:27:50.387Z,85.60
2023-03-01T13:34:42.179Z,85.50
2023-03-01T13:41:40.001Z,86.30
2023-03-01T13:48:29.589Z,87.10
2023-03-01T13:55:14.597Z,88.00
2023-03-01T14:01:59.738Z,88.20
2023-03-01T14:08:43.114Z,87.90
2023-03-01T14:16:07.805Z,88.50
2023-03-01T14:22:54.685Z,89.70
2023-03-01T14:29:39.071Z,90.00
2023-03-01T14:36:28.022Z,90.00
2023-03-01T14:43:12.961Z,90.30
2023-03-01T14:50:00.499Z,89.90
2023-03-01T14:56:48.307Z,89.70
2023-03-01T15:03:48.240Z,89.80
2023-03-01T15:10:36.759Z,90.00
2023-03-01T15:17:39.969Z,90.20
2023-03-01T15:24:26.386Z,90.40
2023-03-01T15:31:26.881Z,90.00
2023-03-01T15:38:29.502Z,90.20
2023-03-01T15:45:21.697Z,89.80
2023-03-01T15:52:05.203Z,89.40
2023-03-01T15:58:49.070Z,89.70
2023-03-01T16:05:35.240Z,88.90
2023-03-01T16:12:17.754Z,89.00
2023-03-01T16:19:00.309Z,88.50
2023-03-01T16:25:42.664Z,90.00
2023-03-01T16:32:25.094Z,90.40
2023-03-01T16:39:08.498Z,90.00
2023-03-01T16:45:51.129Z,90.20
2023-03-01T16:52:34.877Z,90.50
2023-03-01T16:59:20.245Z,91.30
2023-03-01T17:06:05.297Z,92.30
2023-03-01T17:12:50.486Z,93.10
2023-03-01T17:19:32.865Z,93.80
2023-03-01T17:26:15.292Z,94.40
2023-03-01T17:32:57.676Z,95.30
2023-03-01T17:39:40.052Z,97.00
2023-03-01T17:46:22.368Z,97.60
2023-03-01T17:53:09.540Z,96.50
2023-03-01T17:59:51.813Z,96.80
2023-03-01T18:06:37.227Z,97.20
2023-03-01T18:13:19.619Z,97.50
2023-03-01T18:20:02.035Z,98.00
2023-03-01T18:26:44.411Z,99.70
2023-03-01T18:33:27.185Z,99.90
2023-03-01T18:40:10.298Z,99.90
2023-03-01T18:46:52.909Z,99.90
2023-03-01T18:53:35.397Z,99.90
2023-03-01T19:00:18.602Z,99.90
2023-03-01T19:07:02.123Z,99.90
2023-03-01T19:13:46.164Z,99.90
2023-03-01T19:20:28.399Z,99.90
2023-03-01T19:27:10.733Z,99.90
2023-03-01T19:33:57.049Z,99.90
2023-03-01T19:40:44.757Z,99.90
2023-03-01T19:47:27.167Z,99.90
2023-03-01T19:54:11.631Z,99.90
2023-03-01T20:01:00.751Z,99.90
2023-03-01T20:07:44.574Z,99.90
2023-03-01T20:14:27.609Z,99.90
2023-03-01T20:21:22.827Z,99.90
2023-03-01T20:28:06.158Z,99.90
2023-03-01T20:34:49.237Z,99.90
2023-03-01T20:41:31.668Z,99.90
2023-03-01T20:48:14.109Z,99.90
2023-03-01T20:54:56.546Z,99.90
2023-03-01T21:01:40.119Z,99.90
2023-03-01T21:08:22.980Z,99.90
2023-03-01T21:15:05.863Z,99.90
2023-03-01T21:21:48.377Z,99.90
2023-03-01T21:28:33.188Z,99.90
2023-03-01T21:35:15.616Z,99.90
2023-03-01T21:41:59.639Z,99.90
2023-03-01T21:48:44.278Z,99.90
2023-03-01T21:55:27.690Z,99.90
2023-03-01T22:02:14.306Z,99.90
2023-03-01T22:09:04.806Z,99.90
2023-03-01T22:15:47.465Z,99.90
2023-03-01T22:22:29.762Z,99.90
2023-03-01T22:29:16.129Z,99.90
2023-03-01T22:35:58.520Z,99.90
2023-03-01T22:42:41.184Z,99.90
2023-03-01T22:49:23.779Z,99.90
2023-03-01T22:56:18.334Z,99.90
2023-03-01T23:03:00.885Z,99.90
2023-03-01T23:09:43.301Z,99.90
2023-03-01T23:16:25.847Z,99.90
2023-03-01T23:23:08.999Z,99.90
2023-03-01T23:36:35.620Z,99.90
2023-03-01T23:43:18.109Z,99.90
2023-03-01T23:50:00.390Z,99.90
2023-03-01T23:56:44.105Z,99.90
